Time;durP1;ratioP1;P1;durP2;ratioP2;P2;SDS_P1;SDS_P2;PMS_P1;PMS_P2;Temp;Humidity;BMP_temperature;BMP_pressure;BME280_temperature;BME280_humidity;BME280_pressure;Samples;Min_cycle;Max_cycle;Signal;HPM_P1;HPM_P2
2022/12/17 13:07:28;;;;;;;77.70;37.90;;;;;;;0.32;61.67;99576.65;222670;1261;139108;-63
2022/12/17 13:13:10;;;;;;;82.80;43.80;;;;;;;0.28;61.73;99582.63;222764;1276;138358;-63
2022/12/17 13:18:24;;;;;;;82.00;43.30;;;;;;;0.32;61.96;99592.71;222731;1261;138725;-63
2022/12/17 13:23:34;;;;;;;81.60;39.60;;;;;;;0.30;61.92;99596.40;222787;1281;138883;-63
2022/12/17 13:29:23;;;;;;;79.70;39.80;;;;;;;0.25;62.17;99596.45;222349;1283;138542;-65
2022/12/17 13:34:35;;;;;;;90.00;42.70;;;;;;;0.26;62.42;99599.58;222676;1263;138680;-64
2022/12/17 13:39:58;;;;;;;84.10;42.40;;;;;;;0.25;62.54;99606.91;222869;1265;138572;-63
2022/12/17 13:45:03;;;;;;;83.20;38.80;;;;;;;0.24;62.47;99622.29;222852;1262;138844;-65
2022/12/17 13:50:21;;;;;;;;;;;;;;;0.21;62.64;99635.75;222837;1280;138300;-65
2022/12/17 13:55:39;;;;;;;78.70;38.70;;;;;;;0.14;62.91;99641.92;222900;1279;124403;-67
2022/12/17 14:00:43;;;;;;;84.30;39.00;;;;;;;0.11;63.26;99645.27;222699;1262;138382;-68
2022/12/17 14:05:46;;;;;;;75.20;37.60;;;;;;;0.12;63.56;99656.08;222609;1267;138517;-65
2022/12/17 14:12:20;;;;;;;80.70;37.90;;;;;;;0.07;63.77;99661.71;222645;1261;139575;-65
2022/12/17 14:16:20;;;;;;;79.60;39.70;;;;;;;0.07;64.10;99679.86;222549;1268;139302;-65
2022/12/17 14:21:26;;;;;;;75.20;37.20;;;;;;;0.13;64.24;99686.07;222690;1280;138948;-63
2022/12/17 14:26:29;;;;;;;178.20;88.90;;;;;;;0.13;64.46;99693.92;222551;1275;139444;-64
2022/12/17 14:31:32;;;;;;;74.70;38.50;;;;;;;0.19;64.89;99706.42;222596;1261;139870;-66
2022/12/17 14:36:41;;;;;;;77.40;37.80;;;;;;;0.27;64.38;99711.59;222587;1261;139037;-65
2022/12/17 14:47:27;;;;;;;79.00;39.30;;;;;;;0.34;64.29;99731.24;222652;1271;139175;-67
2022/12/17 14:52:36;;;;;;;79.00;37.90;;;;;;;0.29;64.59;99733.73;222581;1272;139282;-65
2022/12/17 14:57:39;;;;;;;77.30;38.20;;;;;;;0.27;64.62;99733.06;222667;1264;138632;-65
2022/12/17 15:02:45;;;;;;;75.80;37.90;;;;;;;0.19;64.83;99745.67;222569;1261;138222;-65
2022/12/17 15:07:50;;;;;;;78.10;39.80;;;;;;;0.16;64.72;99757.23;222648;1262;138537;-63
2022/12/17 15:12:53;;;;;;;76.90;38.20;;;;;;;0.11;65.10;99756.41;222636;1262;138697;-65
2022/12/17 15:17:57;;;;;;;81.00;39.70;;;;;;;0.14;65.23;99757.08;222619;1280;139786;-66
2022/12/17 15:23:01;;;;;;;85.20;42.00;;;;;;;0.13;65.09;99765.45;222629;1280;138671;-65
2022/12/17 15:28:05;;;;;;;86.40;40.20;;;;;;;0.11;65.40;99774.38;222551;1274;138605;-66
2022/12/17 15:33:09;;;;;;;96.00;44.70;;;;;;;0.11;65.31;99785.35;222702;1280;138595;-64
2022/12/17 15:38:12;;;;;;;101.00;45.20;;;;;;;0.06;65.49;99788.54;222530;1265;139152;-65
2022/12/17 15:43:15;;;;;;;94.90;44.80;;;;;;;0.02;65.52;99792.58;222637;1287;138492;-65
2022/12/17 15:48:22;;;;;;;106.80;49.80;;;;;;;0.03;65.62;99792.05;222524;1264;138462;-64
2022/12/17 15:53:25;;;;;;;106.50;47.70;;;;;;;0.02;65.63;99801.30;222609;1275;139052;-64
2022/12/17 15:58:29;;;;;;;106.30;48.80;;;;;;;-0.05;65.60;99807.28;222551;1264;138605;-63
2022/12/17 16:03:39;;;;;;;167.10;80.80;;;;;;;-0.11;65.89;99807.67;222674;1264;138897;-63
2022/12/17 16:08:51;;;;;;;99.60;47.40;;;;;;;0.00;66.32;99816.48;222520;1261;139709;-63
2022/12/17 16:13:58;;;;;;;109.40;50.60;;;;;;;-0.01;65.50;99822.23;222530;1287;138921;-64
2022/12/17 16:19:02;;;;;;;107.90;48.00;;;;;;;0.02;65.57;99825.89;222567;1261;139447;-63
2022/12/17 16:24:07;;;;;;;116.10;50.60;;;;;;;0.17;65.92;99835.04;222651;1264;138728;-63
2022/12/17 16:29:13;;;;;;;111.70;51.30;;;;;;;0.25;65.65;99845.45;222592;1277;139310;-62
2022/12/17 16:34:16;;;;;;;115.80;50.50;;;;;;;0.18;65.11;99852.13;222442;1261;140639;-65
2022/12/17 16:39:20;;;;;;;112.40;50.40;;;;;;;0.06;65.11;99853.77;222780;1261;139587;-63
2022/12/17 16:44:23;;;;;;;116.90;48.20;;;;;;;0.02;65.16;99863.23;222592;1264;139052;-63
2022/12/17 16:49:26;;;;;;;114.30;51.00;;;;;;;-0.05;65.43;99865.71;222593;1280;139097;-63
2022/12/17 16:54:31;;;;;;;112.70;50.40;;;;;;;-0.08;65.81;99869.02;222636;1261;139198;-65
2022/12/17 16:59:34;;;;;;;113.40;50.60;;;;;;;-0.08;65.66;99867.29;222529;1261;139654;-65
2022/12/17 17:04:38;;;;;;;108.20;49.00;;;;;;;-0.08;65.78;99873.58;222596;1262;139676;-65
2022/12/17 17:09:41;;;;;;;115.70;52.30;;;;;;;-0.11;65.76;99880.55;222643;1264;139021;-65
2022/12/17 17:14:44;;;;;;;129.60;54.90;;;;;;;-0.05;66.71;99887.33;222572;1277;138645;-65
2022/12/17 17:19:50;;;;;;;109.70;48.70;;;;;;;-0.03;66.22;99897.27;222538;1267;138989;-67
2022/12/17 17:24:54;;;;;;;116.80;50.80;;;;;;;-0.05;65.83;99908.61;222590;1261;139108;-67
2022/12/17 17:29:59;;;;;;;142.40;62.70;;;;;;;-0.03;66.17;99916.27;222544;1267;139163;-67
2022/12/17 17:35:06;;;;;;;119.40;52.10;;;;;;;-0.07;67.33;99922.23;222518;1280;138660;-67
2022/12/17 17:40:10;;;;;;;112.70;50.20;;;;;;;-0.10;66.28;99930.80;222584;1265;139437;-65
2022/12/17 17:45:14;;;;;;;229.80;110.70;;;;;;;0.01;66.87;99935.09;222583;1280;139991;-66
2022/12/17 17:50:17;;;;;;;128.90;57.00;;;;;;;0.17;66.77;99940.77;222542;1264;138527;-67
2022/12/17 17:55:20;;;;;;;173.90;53.50;;;;;;;0.18;66.18;99948.09;222600;1267;139354;-67
2022/12/17 18:00:23;;;;;;;163.20;78.60;;;;;;;0.16;66.48;99959.96;222589;1280;139933;-67
2022/12/17 18:05:27;;;;;;;357.60;181.20;;;;;;;0.25;67.04;99967.95;222454;1280;140124;-64
2022/12/17 18:10:30;;;;;;;125.40;55.90;;;;;;;0.33;66.99;99982.91;222606;1282;141652;-64
2022/12/17 18:15:34;;;;;;;119.10;48.40;;;;;;;0.22;65.94;99981.41;222756;1261;138131;-66
2022/12/17 18:20:37;;;;;;;122.10;50.90;;;;;;;0.19;66.56;99981.40;222632;1264;138555;-69
2022/12/17 18:25:40;;;;;;;116.40;50.00;;;;;;;0.18;66.44;99983.86;222613;1261;140881;-65
2022/12/17 18:30:43;;;;;;;111.80;48.30;;;;;;;0.11;65.62;99993.13;222553;1284;139350;-65
2022/12/17 18:35:46;;;;;;;115.20;45.90;;;;;;;-0.07;65.24;100007.86;222512;1280;139185;-65
2022/12/17 18:40:50;;;;;;;104.20;44.20;;;;;;;-0.20;65.24;100015.05;222667;1288;139006;-65
2022/12/17 18:45:56;;;;;;;106.00;43.40;;;;;;;-0.25;65.17;100029.20;222727;1287;139310;-67
2022/12/17 18:51:04;;;;;;;144.20;69.70;;;;;;;-0.33;65.63;100036.70;222662;1261;139037;-67
2022/12/17 18:56:09;;;;;;;118.30;46.80;;;;;;;-0.29;66.92;100042.80;222696;1281;140042;-66
2022/12/17 19:01:27;;;;;;;109.50;45.60;;;;;;;-0.17;65.70;100055.33;222633;1287;140491;-66
2022/12/17 19:06:33;;;;;;;121.20;49.80;;;;;;;-0.15;65.34;100055.33;222659;1278;140178;-66
2022/12/17 19:11:36;;;;;;;125.00;50.30;;;;;;;-0.08;65.10;100051.99;222675;1261;139887;-66
2022/12/17 19:16:50;;;;;;;137.80;50.80;;;;;;;-0.13;64.85;100065.60;222494;1277;139909;-66
2022/12/17 19:22:00;;;;;;;158.40;72.60;;;;;;;-0.31;64.88;100069.48;222642;1262;139401;-65
2022/12/17 19:27:05;;;;;;;128.20;49.40;;;;;;;-0.15;69.69;100078.50;222609;1260;139521;-64
2022/12/17 19:32:12;;;;;;;112.20;45.20;;;;;;;-0.02;65.86;100087.73;222582;1261;139313;-64
2022/12/17 19:37:20;;;;;;;106.00;41.10;;;;;;;-0.23;64.80;100099.80;222456;1261;139782;-64
2022/12/17 19:42:24;;;;;;;96.10;39.20;;;;;;;-0.35;63.75;100108.02;222564;1261;139807;-65
2022/12/17 19:47:29;;;;;;;86.20;35.20;;;;;;;-0.54;63.58;100114.98;222612;1261;139091;-64
2022/12/17 19:52:34;;;;;;;93.50;38.40;;;;;;;-0.74;63.74;100125.95;222568;1261;139597;-65
2022/12/17 19:57:38;;;;;;;79.50;33.10;;;;;;;-0.88;63.66;100135.52;222708;1261;139298;-66
2022/12/17 20:02:43;;;;;;;96.70;38.80;;;;;;;-1.04;63.81;100140.17;222681;1264;139009;-67
2022/12/17 20:07:50;;;;;;;199.40;98.00;;;;;;;-1.08;64.10;100142.59;222308;1281;139516;-68
2022/12/17 20:13:12;;;;;;;;;;;;;;;;;;;;;
2022/12/17 20:18:18;;;;;;;89.50;37.10;;;;;;;-0.85;64.25;100162.34;222632;1261;138907;-67
2022/12/17 20:23:27;;;;;;;93.60;39.10;;;;;;;-0.94;63.94;100176.95;222580;1287;139163;-64
2022/12/17 20:28:32;;;;;;;77.30;45.40;;;;;;;-0.95;63.55;100186.00;222862;1261;138372;-67
2022/12/17 20:33:36;;;;;;;92.10;36.20;;;;;;;-1.03;63.35;100191.20;222818;1261;139122;-65
2022/12/17 20:38:42;;;;;;;88.90;36.90;;;;;;;-1.14;63.36;100201.44;222522;1261;139866;-67
2022/12/17 20:43:46;;;;;;;72.30;31.50;;;;;;;-1.15;63.54;100210.48;222685;1265;138808;-68
2022/12/17 20:48:50;;;;;;;76.60;33.30;;;;;;;-1.20;63.53;100221.08;222661;1265;138504;-67
2022/12/17 20:53:55;;;;;;;79.90;33.10;;;;;;;-1.26;63.67;100231.86;222588;1261;139813;-68
2022/12/17 20:59:01;;;;;;;76.60;31.20;;;;;;;-1.36;63.91;100243.63;222601;1280;139731;-68
2022/12/17 21:04:06;;;;;;;68.80;28.00;;;;;;;-1.36;64.23;100250.94;222770;1261;139894;-67
2022/12/17 21:09:11;;;;;;;74.60;30.00;;;;;;;-1.45;64.31;100250.89;222558;1265;139021;-65
2022/12/17 21:14:24;;;;;;;66.20;28.50;;;;;;;-1.47;64.67;100249.48;222551;1264;139313;-63
2022/12/17 21:19:36;;;;;;;70.90;30.20;;;;;;;-1.46;64.83;100257.84;222603;1261;139841;-66
2022/12/17 21:24:42;;;;;;;72.30;28.30;;;;;;;-1.31;64.73;100262.45;222538;1262;139259;-64
2022/12/17 21:29:47;;;;;;;77.10;29.90;;;;;;;-1.28;64.72;100262.48;222710;1264;139218;-65
2022/12/17 21:34:52;;;;;;;75.50;30.20;;;;;;;-1.25;64.56;100271.03;222662;1261;139171;-64
2022/12/17 21:40:09;;;;;;;74.00;29.00;;;;;;;-1.23;64.50;100282.88;222629;1261;138880;-65
2022/12/17 21:45:14;;;;;;;79.60;32.10;;;;;;;-1.23;64.16;100291.77;222543;1264;139481;-64
2022/12/17 21:50:19;;;;;;;81.90;31.20;;;;;;;-1.25;64.40;100302.88;222537;1264;140036;-66
2022/12/17 21:55:23;;;;;;;82.40;33.10;;;;;;;-1.26;64.60;100309.50;222657;1261;138822;-66
2022/12/17 22:00:27;;;;;;;81.00;33.90;;;;;;;-1.18;64.46;100315.30;222537;1261;139389;-65
2022/12/17 22:05:46;;;;;;;76.60;30.90;;;;;;;-1.21;64.51;100319.27;222581;1261;139280;-66
2022/12/17 22:10:50;;;;;;;76.30;30.10;;;;;;;-1.24;64.62;100328.66;222606;1261;139222;-66
2022/12/17 22:15:55;;;;;;;69.50;31.40;;;;;;;-1.21;64.34;100336.69;222728;1261;139067;-65
2022/12/17 22:21:01;;;;;;;64.40;28.50;;;;;;;-1.18;64.16;100341.92;222676;1261;139328;-65
2022/12/17 22:26:09;;;;;;;74.70;31.30;;;;;;;-1.19;64.16;100348.54;222570;1260;139040;-66
2022/12/17 22:36:40;;;;;;;75.00;30.70;;;;;;;-1.16;63.83;100357.09;222459;1264;138737;-66
2022/12/17 22:48:02;;;;;;;64.50;28.70;;;;;;;-1.11;63.98;100361.46;222587;1264;139236;-65
2022/12/17 22:53:08;;;;;;;72.30;29.50;;;;;;;-1.14;63.83;100369.29;222592;1263;139076;-65
2022/12/17 22:58:16;;;;;;;61.30;27.20;;;;;;;-1.18;64.06;100370.14;222684;1262;139331;-66
2022/12/17 23:03:20;;;;;;;64.70;27.80;;;;;;;-1.17;64.03;100375.89;222568;1264;139171;-65
2022/12/17 23:08:24;;;;;;;68.00;30.30;;;;;;;-1.13;63.95;100386.70;222552;1262;138928;-66
2022/12/17 23:13:31;;;;;;;62.20;28.40;;;;;;;-1.11;63.68;100386.90;222499;1264;139509;-66
2022/12/17 23:18:35;;;;;;;64.20;29.20;;;;;;;-1.12;63.72;100396.13;222692;1262;139184;-66
2022/12/17 23:23:39;;;;;;;63.20;27.00;;;;;;;-1.09;63.79;100409.20;222577;1262;139438;-65
2022/12/17 23:28:44;;;;;;;64.40;28.60;;;;;;;-1.06;63.69;100418.10;222546;1261;141810;-69
2022/12/17 23:33:50;;;;;;;59.40;27.50;;;;;;;-1.04;63.58;100414.98;222712;1261;139008;-65
2022/12/17 23:39:08;;;;;;;59.60;26.30;;;;;;;-0.98;63.29;100418.16;222591;1261;139085;-67
2022/12/17 23:44:11;;;;;;;61.00;24.50;;;;;;;-1.06;63.31;100424.55;222620;1261;140197;-67
2022/12/17 23:49:15;;;;;;;56.30;26.40;;;;;;;-0.99;63.37;100435.05;222594;1256;140531;-67
2022/12/17 23:54:19;;;;;;;62.80;28.40;;;;;;;-0.95;63.00;100439.26;222644;1258;139101;-66
2022/12/17 23:59:26;;;;;;;55.00;25.50;;;;;;;-1.04;63.07;100445.64;222641;1276;139115;-67
